Time;durP1;ratioP1;P1;durP2;ratioP2;P2;SDS_P1;SDS_P2;PMS_P1;PMS_P2;Temp;Humidity;BMP_temperature;BMP_pressure;BME280_temperature;BME280_humidity;BME280_pressure;Samples;Min_cycle;Max_cycle;Signal;HPM_P1;HPM_P2
2023/05/17 00:01:45;;;;;;;6.65;1.40;;;;;;;;;;4969919;28;20077;-81
2023/05/17 00:04:12;;;;;;;5.10;1.60;;;;;;;;;;4996944;28;20054;-82
2023/05/17 00:06:40;;;;;;;9.27;1.10;;;;;;;;;;4996825;28;20441;-80
2023/05/17 00:09:07;;;;;;;7.63;1.20;;;;;;;;;;5012682;28;20130;-80
2023/05/17 00:11:34;;;;;;;7.78;1.10;;;;;;;;;;4994307;23;20070;-88
2023/05/17 00:14:04;;;;;;;7.45;1.10;;;;;;;;;;4935661;28;20057;-86
2023/05/17 00:16:31;;;;;;;7.32;1.27;;;;;;;;;;4936908;28;20040;-87
2023/05/17 00:18:57;;;;;;;8.23;1.20;;;;;;;;;;4937820;28;20256;-83
2023/05/17 00:21:26;;;;;;;4.93;1.20;;;;;;;;;;4963690;28;20508;-87
2023/05/17 00:23:52;;;;;;;4.43;1.15;;;;;;;;;;4936457;29;20114;-86
2023/05/17 00:26:19;;;;;;;7.35;1.33;;;;;;;;;;4935877;28;20584;-86
2023/05/17 00:28:45;;;;;;;4.57;1.02;;;;;;;;;;4934165;28;20044;-86
2023/05/17 00:31:13;;;;;;;7.88;1.33;;;;;;;;;;4934356;28;20071;-86
2023/05/17 00:33:39;;;;;;;6.78;1.25;;;;;;;;;;4934747;28;20527;-86
2023/05/17 00:36:06;;;;;;;4.93;1.33;;;;;;;;;;4935636;28;20051;-84
2023/05/17 00:38:33;;;;;;;7.60;1.52;;;;;;;;;;4937112;28;20052;-85
2023/05/17 00:41:00;;;;;;;6.10;1.25;;;;;;;;;;4950923;28;20047;-86
2023/05/17 00:43:27;;;;;;;6.57;1.40;;;;;;;;;;4930277;29;20070;-83
2023/05/17 00:45:53;;;;;;;5.00;1.30;;;;;;;;;;4969154;28;20043;-85
2023/05/17 00:48:20;;;;;;;8.02;1.33;;;;;;;;;;4958735;28;20126;-83
2023/05/17 00:50:47;;;;;;;7.28;1.38;;;;;;;;;;4956251;28;20035;-86
2023/05/17 00:53:15;;;;;;;13.40;1.38;;;;;;;;;;4940224;28;20071;-85
2023/05/17 00:55:44;;;;;;;5.25;1.27;;;;;;;;;;4956294;28;20047;-87
2023/05/17 00:58:13;;;;;;;4.03;1.27;;;;;;;;;;4949110;28;20522;-84
2023/05/17 01:00:41;;;;;;;5.88;1.42;;;;;;;;;;4953418;28;20042;-86
2023/05/17 01:03:08;;;;;;;6.90;1.48;;;;;;;;;;4935538;28;20063;-85
2023/05/17 01:05:35;;;;;;;5.63;1.40;;;;;;;;;;4942965;28;20099;-87
2023/05/17 01:08:02;;;;;;;8.90;1.63;;;;;;;;;;4954362;28;20050;-84
2023/05/17 01:10:40;;;;;;;8.95;1.70;;;;;;;;;;4945998;29;20059;-84
2023/05/17 01:13:09;;;;;;;8.40;1.50;;;;;;;;;;4938051;28;20056;-85
2023/05/17 01:15:45;;;;;;;7.65;1.55;;;;;;;;;;4925234;28;20560;-83
2023/05/17 01:18:26;;;;;;;12.90;1.60;;;;;;;;;;4939309;28;20060;-87
2023/05/17 01:20:55;;;;;;;12.55;1.60;;;;;;;;;;4940568;28;20066;-86
2023/05/17 01:23:30;;;;;;;5.93;1.40;;;;;;;;;;4921650;28;20066;-85
2023/05/17 01:25:59;;;;;;;4.80;1.30;;;;;;;;;;4935735;29;20044;-86
2023/05/17 01:28:26;;;;;;;9.27;1.75;;;;;;;;;;4935764;28;20130;-85
2023/05/17 01:30:53;;;;;;;7.38;1.50;;;;;;;;;;4925685;28;20043;-87
2023/05/17 01:33:20;;;;;;;6.20;1.52;;;;;;;;;;4935061;28;20051;-85
2023/05/17 01:35:47;;;;;;;10.88;1.88;;;;;;;;;;4934571;28;20039;-88
2023/05/17 01:38:13;;;;;;;7.85;1.75;;;;;;;;;;4934946;28;20554;-85
2023/05/17 01:40:59;;;;;;;8.65;1.83;;;;;;;;;;4933956;28;20048;-85
2023/05/17 01:43:49;;;;;;;9.80;2.22;;;;;;;;;;4919042;28;20581;-86
2023/05/17 01:46:35;;;;;;;13.48;2.45;;;;;;;;;;4944989;28;20046;-83
2023/05/17 01:49:20;;;;;;;7.55;1.88;;;;;;;;;;4934371;29;20055;-84
2023/05/17 01:51:48;;;;;;;;;;;;;;;;;;4934946;28;20047;-87
2023/05/17 01:54:17;;;;;;;8.18;1.63;;;;;;;;;;4943985;28;19966;-84
2023/05/17 01:56:56;;;;;;;5.50;1.90;;;;;;;;;;4942354;28;20193;-84
2023/05/17 01:59:24;;;;;;;8.52;2.25;;;;;;;;;;4934656;28;20602;-80
2023/05/17 02:01:55;;;;;;;13.57;1.73;;;;;;;;;;4950711;28;20299;-84
2023/05/17 02:04:22;;;;;;;10.18;1.98;;;;;;;;;;4950769;28;20139;-85
2023/05/17 02:06:49;;;;;;;7.40;1.65;;;;;;;;;;4941157;28;20076;-85
2023/05/17 02:09:16;;;;;;;10.93;1.90;;;;;;;;;;4949724;28;20044;-85
2023/05/17 02:11:45;;;;;;;8.18;1.92;;;;;;;;;;4917194;28;20108;-85
2023/05/17 02:14:12;;;;;;;9.65;1.77;;;;;;;;;;4932554;28;20143;-85
2023/05/17 02:16:39;;;;;;;10.80;1.73;;;;;;;;;;4933267;28;20103;-83
2023/05/17 02:19:11;;;;;;;16.15;1.85;;;;;;;;;;4949285;28;20296;-83
2023/05/17 02:21:38;;;;;;;7.82;1.88;;;;;;;;;;4932882;29;20103;-86
2023/05/17 02:24:05;;;;;;;7.28;1.85;;;;;;;;;;4949336;28;20394;-85
2023/05/17 02:26:32;;;;;;;8.75;1.90;;;;;;;;;;4935849;28;20051;-87
2023/05/17 02:29:02;;;;;;;11.85;2.10;;;;;;;;;;4921729;28;20075;-87
2023/05/17 02:31:32;;;;;;;10.93;2.20;;;;;;;;;;4937313;28;20099;-86
2023/05/17 02:33:59;;;;;;;9.88;1.92;;;;;;;;;;4939119;28;20052;-87
2023/05/17 02:36:26;;;;;;;12.73;2.70;;;;;;;;;;4939673;28;20063;-84
2023/05/17 02:38:52;;;;;;;8.10;2.05;;;;;;;;;;4936506;28;20048;-86
2023/05/17 02:41:19;;;;;;;12.60;2.30;;;;;;;;;;4935775;28;20058;-85
2023/05/17 02:43:46;;;;;;;15.02;2.20;;;;;;;;;;4951035;28;20043;-82
2023/05/17 02:46:12;;;;;;;9.95;2.10;;;;;;;;;;4935412;28;20071;-84
2023/05/17 02:48:39;;;;;;;12.30;2.20;;;;;;;;;;4940171;29;20083;-86
2023/05/17 02:51:06;;;;;;;10.32;2.10;;;;;;;;;;4937765;29;20039;-85
2023/05/17 02:53:33;;;;;;;12.60;2.08;;;;;;;;;;4937704;28;20043;-83
2023/05/17 02:55:59;;;;;;;5.70;2.13;;;;;;;;;;4937125;28;20524;-86
2023/05/17 02:58:30;;;;;;;11.30;2.72;;;;;;;;;;4936017;28;20043;-86
2023/05/17 03:00:57;;;;;;;7.43;2.58;;;;;;;;;;4952534;28;20043;-83
2023/05/17 03:03:26;;;;;;;17.85;2.50;;;;;;;;;;4936438;28;20039;-86
2023/05/17 03:05:53;;;;;;;11.75;2.20;;;;;;;;;;4956184;28;20533;-83
2023/05/17 03:08:21;;;;;;;8.82;2.67;;;;;;;;;;4938886;28;20067;-84
2023/05/17 03:10:51;;;;;;;10.15;2.75;;;;;;;;;;4921808;28;20524;-84
2023/05/17 03:13:18;;;;;;;16.60;2.30;;;;;;;;;;4937970;28;20050;-87
2023/05/17 03:15:45;;;;;;;12.55;2.58;;;;;;;;;;4941064;28;20047;-82
2023/05/17 03:18:12;;;;;;;9.82;2.55;;;;;;;;;;4947400;29;20058;-87
2023/05/17 03:20:40;;;;;;;13.77;2.92;;;;;;;;;;4938278;28;20059;-86
2023/05/17 03:23:07;;;;;;;8.52;2.70;;;;;;;;;;4954963;28;20567;-85
2023/05/17 03:25:41;;;;;;;10.93;2.60;;;;;;;;;;4954710;28;20446;-84
2023/05/17 03:28:10;;;;;;;11.18;2.50;;;;;;;;;;4953915;28;20054;-82
2023/05/17 03:30:37;;;;;;;9.45;2.30;;;;;;;;;;4918631;28;20068;-84
2023/05/17 03:33:04;;;;;;;5.35;2.35;;;;;;;;;;4933343;28;20055;-82
2023/05/17 03:35:31;;;;;;;17.92;2.97;;;;;;;;;;4934512;28;20067;-84
2023/05/17 03:37:57;;;;;;;10.55;2.60;;;;;;;;;;4935436;28;20052;-84
2023/05/17 03:40:24;;;;;;;10.82;2.67;;;;;;;;;;4934600;28;20063;-85
2023/05/17 03:42:51;;;;;;;15.90;3.58;;;;;;;;;;4935688;28;20503;-83
2023/05/17 03:45:18;;;;;;;9.10;2.95;;;;;;;;;;4936297;28;20691;-85
2023/05/17 03:47:45;;;;;;;8.23;3.15;;;;;;;;;;4945328;29;20324;-86
2023/05/17 03:50:11;;;;;;;10.60;3.53;;;;;;;;;;4939479;28;20158;-84
2023/05/17 03:52:40;;;;;;;9.05;2.97;;;;;;;;;;4939992;28;20054;-86
2023/05/17 03:55:08;;;;;;;13.07;3.25;;;;;;;;;;4941895;28;20501;-79
2023/05/17 03:57:34;;;;;;;10.27;2.85;;;;;;;;;;4942853;28;20066;-86
2023/05/17 04:00:04;;;;;;;14.60;3.30;;;;;;;;;;4934281;28;20134;-85
2023/05/17 04:02:40;;;;;;;11.65;3.38;;;;;;;;;;4953057;28;20051;-84
2023/05/17 04:05:07;;;;;;;14.00;3.45;;;;;;;;;;4949203;28;20073;-83
2023/05/17 04:07:33;;;;;;;6.75;2.75;;;;;;;;;;4970123;28;20051;-83
2023/05/17 04:10:01;;;;;;;16.02;3.33;;;;;;;;;;4954702;28;20102;-83
2023/05/17 04:12:30;;;;;;;13.68;3.60;;;;;;;;;;4957647;28;20114;-81
2023/05/17 04:14:57;;;;;;;15.27;3.30;;;;;;;;;;4957277;28;20523;-84
2023/05/17 04:17:24;;;;;;;10.57;3.38;;;;;;;;;;4932839;28;20131;-82
2023/05/17 04:19:50;;;;;;;13.38;3.38;;;;;;;;;;4926092;29;20043;-82
2023/05/17 04:22:19;;;;;;;13.23;2.97;;;;;;;;;;4925767;29;20500;-84
2023/05/17 04:24:46;;;;;;;11.65;3.40;;;;;;;;;;4925335;29;20397;-83
2023/05/17 04:27:13;;;;;;;12.13;3.70;;;;;;;;;;4950812;28;20102;-86
2023/05/17 04:29:40;;;;;;;13.18;3.50;;;;;;;;;;4933421;28;20468;-87
2023/05/17 04:32:07;;;;;;;17.23;3.65;;;;;;;;;;4933214;28;20040;-83
2023/05/17 04:34:34;;;;;;;10.85;3.40;;;;;;;;;;4933514;28;20040;-85
2023/05/17 04:37:02;;;;;;;16.80;4.00;;;;;;;;;;4948339;28;20050;-83
2023/05/17 04:39:31;;;;;;;10.68;3.85;;;;;;;;;;4946456;28;20514;-82
2023/05/17 04:41:58;;;;;;;9.80;3.40;;;;;;;;;;4900189;29;20056;-85
2023/05/17 04:44:25;;;;;;;12.77;3.97;;;;;;;;;;4919016;28;20095;-87
2023/05/17 04:46:53;;;;;;;10.02;3.50;;;;;;;;;;4943420;29;20031;-81
2023/05/17 04:49:19;;;;;;;18.50;3.70;;;;;;;;;;4968294;28;20119;-79
2023/05/17 04:51:46;;;;;;;12.65;3.72;;;;;;;;;;4968441;28;20027;-82
2023/05/17 04:54:13;;;;;;;14.90;4.07;;;;;;;;;;4945484;28;20119;-80
2023/05/17 04:56:40;;;;;;;17.55;4.13;;;;;;;;;;4947627;28;20054;-81
2023/05/17 04:59:12;;;;;;;14.50;4.03;;;;;;;;;;4944432;28;20122;-85
2023/05/17 05:01:39;;;;;;;14.60;4.47;;;;;;;;;;4933321;28;20044;-83
2023/05/17 05:04:06;;;;;;;14.43;3.80;;;;;;;;;;4917504;28;20074;-82
2023/05/17 05:06:39;;;;;;;11.45;3.67;;;;;;;;;;4935587;28;20046;-84
2023/05/17 05:09:06;;;;;;;13.80;3.55;;;;;;;;;;4947384;28;20050;-83
2023/05/17 05:11:35;;;;;;;22.98;5.00;;;;;;;;;;4953961;28;20055;-81
2023/05/17 05:14:02;;;;;;;12.95;4.05;;;;;;;;;;4954336;28;20078;-82
2023/05/17 05:16:29;;;;;;;16.75;4.18;;;;;;;;;;4955192;28;20122;-82
2023/05/17 05:18:56;;;;;;;16.00;4.90;;;;;;;;;;4970590;28;20059;-83
2023/05/17 05:21:23;;;;;;;17.92;4.55;;;;;;;;;;4953309;28;20704;-84
2023/05/17 05:23:50;;;;;;;13.75;4.13;;;;;;;;;;4953785;28;20118;-82
2023/05/17 05:26:26;;;;;;;14.57;4.20;;;;;;;;;;4950351;28;20043;-82
2023/05/17 05:28:55;;;;;;;15.95;4.63;;;;;;;;;;4934856;28;20054;-82
2023/05/17 05:31:21;;;;;;;14.35;4.28;;;;;;;;;;4950686;28;20405;-81
2023/05/17 05:33:51;;;;;;;15.85;4.35;;;;;;;;;;4968652;28;20122;-84
2023/05/17 05:36:18;;;;;;;14.05;4.18;;;;;;;;;;4954050;28;20051;-82
2023/05/17 05:38:47;;;;;;;15.30;4.85;;;;;;;;;;4948651;28;20214;-84
2023/05/17 05:41:14;;;;;;;19.83;4.72;;;;;;;;;;4954196;28;20047;-81
2023/05/17 05:43:41;;;;;;;20.77;5.05;;;;;;;;;;4953272;28;20039;-84
2023/05/17 05:46:07;;;;;;;18.35;4.47;;;;;;;;;;4954996;28;20047;-81
2023/05/17 05:48:38;;;;;;;14.23;4.47;;;;;;;;;;4965199;28;20047;-83
2023/05/17 05:51:05;;;;;;;15.52;4.38;;;;;;;;;;4951077;28;20810;-85
2023/05/17 05:53:32;;;;;;;22.27;4.68;;;;;;;;;;4935566;28;20043;-83
2023/05/17 05:56:09;;;;;;;14.25;4.70;;;;;;;;;;4953306;28;20055;-84
2023/05/17 05:58:36;;;;;;;18.52;4.35;;;;;;;;;;4953538;28;20126;-83
2023/05/17 06:01:04;;;;;;;22.73;5.05;;;;;;;;;;4951285;28;20047;-83
2023/05/17 06:03:32;;;;;;;23.58;4.70;;;;;;;;;;4924799;29;20051;-81
2023/05/17 06:05:58;;;;;;;17.38;4.75;;;;;;;;;;4943292;28;20056;-84
2023/05/17 06:08:25;;;;;;;32.25;6.78;;;;;;;;;;4956774;28;20048;-85
2023/05/17 06:10:52;;;;;;;20.38;4.72;;;;;;;;;;4940971;28;20085;-83
2023/05/17 06:13:19;;;;;;;16.05;4.70;;;;;;;;;;4941111;28;20122;-85
2023/05/17 06:15:45;;;;;;;16.45;4.68;;;;;;;;;;4957085;28;20055;-82
2023/05/17 06:18:15;;;;;;;15.20;4.22;;;;;;;;;;4941350;28;20476;-83
2023/05/17 06:20:42;;;;;;;17.00;4.53;;;;;;;;;;4956799;28;20052;-83
2023/05/17 06:23:08;;;;;;;20.40;4.43;;;;;;;;;;4926086;28;20055;-83
2023/05/17 06:25:35;;;;;;;18.20;4.45;;;;;;;;;;4941430;28;20056;-83
2023/05/17 06:28:02;;;;;;;16.80;4.15;;;;;;;;;;4933802;29;20055;-84
2023/05/17 06:30:29;;;;;;;14.75;4.03;;;;;;;;;;4913173;29;20127;-82
2023/05/17 06:32:58;;;;;;;18.90;3.97;;;;;;;;;;4939369;28;20071;-82
2023/05/17 06:35:24;;;;;;;19.23;4.53;;;;;;;;;;4959561;28;20294;-84
2023/05/17 06:37:51;;;;;;;17.15;4.53;;;;;;;;;;4938404;28;20122;-82
2023/05/17 06:40:18;;;;;;;15.82;4.63;;;;;;;;;;4938462;28;20080;-85
2023/05/17 06:42:44;;;;;;;19.30;4.68;;;;;;;;;;4940227;28;20409;-85
2023/05/17 06:45:11;;;;;;;19.30;4.53;;;;;;;;;;4929512;28;20078;-82
2023/05/17 06:47:38;;;;;;;15.98;3.97;;;;;;;;;;4955551;28;20056;-83
2023/05/17 06:50:05;;;;;;;17.45;5.00;;;;;;;;;;4940748;29;20059;-86
2023/05/17 06:52:32;;;;;;;22.83;4.20;;;;;;;;;;4922104;29;20063;-82
2023/05/17 06:54:58;;;;;;;18.08;4.93;;;;;;;;;;4937364;28;20509;-84
2023/05/17 06:57:25;;;;;;;15.63;4.47;;;;;;;;;;4939270;28;20648;-80
2023/05/17 06:59:52;;;;;;;15.25;4.35;;;;;;;;;;4938749;28;20052;-83
2023/05/17 07:02:18;;;;;;;19.70;4.78;;;;;;;;;;4921887;28;20044;-86
2023/05/17 07:04:45;;;;;;;17.42;5.18;;;;;;;;;;4954325;28;20043;-83
2023/05/17 07:07:12;;;;;;;17.02;4.97;;;;;;;;;;4955623;28;20040;-84
2023/05/17 07:09:38;;;;;;;22.80;5.22;;;;;;;;;;4954815;28;20070;-84
2023/05/17 07:12:05;;;;;;;24.30;5.38;;;;;;;;;;4939144;29;20094;-83
2023/05/17 07:14:32;;;;;;;15.90;5.25;;;;;;;;;;4941393;28;20133;-82
2023/05/17 07:16:59;;;;;;;19.48;5.40;;;;;;;;;;4956339;28;20055;-83
2023/05/17 07:19:26;;;;;;;18.98;5.15;;;;;;;;;;4934288;28;20067;-83
2023/05/17 07:21:53;;;;;;;23.30;4.80;;;;;;;;;;4932024;28;20066;-83
2023/05/17 07:24:19;;;;;;;18.23;4.97;;;;;;;;;;4945023;28;20040;-79
2023/05/17 07:26:46;;;;;;;20.83;4.88;;;;;;;;;;4945453;28;20126;-85
2023/05/17 07:29:13;;;;;;;15.95;4.75;;;;;;;;;;4951411;28;20120;-82
2023/05/17 07:31:39;;;;;;;21.30;5.32;;;;;;;;;;4941234;29;20048;-85
2023/05/17 07:34:06;;;;;;;18.40;5.00;;;;;;;;;;4938622;28;20066;-83
2023/05/17 07:36:32;;;;;;;18.40;4.82;;;;;;;;;;4955693;28;20053;-83
2023/05/17 07:38:59;;;;;;;16.95;4.72;;;;;;;;;;4955257;28;20071;-83
2023/05/17 07:41:26;;;;;;;16.75;5.05;;;;;;;;;;4952616;28;20044;-83
2023/05/17 07:43:52;;;;;;;16.63;4.90;;;;;;;;;;4937274;28;20058;-84
2023/05/17 07:46:19;;;;;;;17.50;4.10;;;;;;;;;;4943015;28;20055;-80
2023/05/17 07:48:45;;;;;;;20.58;4.68;;;;;;;;;;4947738;28;20082;-82
2023/05/17 07:51:12;;;;;;;14.93;4.60;;;;;;;;;;4953594;29;20064;-80
2023/05/17 07:53:39;;;;;;;21.65;4.78;;;;;;;;;;4967636;28;20068;-81
2023/05/17 07:56:06;;;;;;;16.08;4.93;;;;;;;;;;4973670;28;20071;-79
2023/05/17 07:58:32;;;;;;;14.77;4.47;;;;;;;;;;4973770;28;20099;-79
2023/05/17 08:00:59;;;;;;;22.48;4.75;;;;;;;;;;4964444;28;20055;-82
2023/05/17 08:03:27;;;;;;;20.40;4.40;;;;;;;;;;4935954;28;20050;-78
2023/05/17 08:05:54;;;;;;;14.20;4.13;;;;;;;;;;4952630;28;20055;-81
2023/05/17 08:08:20;;;;;;;18.98;4.63;;;;;;;;;;4936764;28;20099;-82
2023/05/17 08:10:48;;;;;;;13.30;4.05;;;;;;;;;;4933871;28;20063;-82
2023/05/17 08:13:15;;;;;;;16.58;3.95;;;;;;;;;;4954070;29;20050;-80
2023/05/17 08:15:42;;;;;;;13.73;3.60;;;;;;;;;;4954452;28;20048;-79
2023/05/17 08:18:08;;;;;;;14.23;4.18;;;;;;;;;;4962086;28;20043;-83
2023/05/17 08:20:35;;;;;;;17.15;4.88;;;;;;;;;;4971979;28;20035;-83
2023/05/17 08:23:02;;;;;;;16.05;3.92;;;;;;;;;;4968741;28;20058;-85
2023/05/17 08:25:28;;;;;;;14.93;3.80;;;;;;;;;;4970185;28;20051;-82
2023/05/17 08:27:58;;;;;;;20.17;3.80;;;;;;;;;;4965857;28;20047;-86
2023/05/17 08:30:24;;;;;;;17.55;3.92;;;;;;;;;;4946019;28;20146;-83
2023/05/17 08:32:55;;;;;;;14.45;3.78;;;;;;;;;;4941446;28;20044;-84
2023/05/17 08:35:25;;;;;;;17.10;3.72;;;;;;;;;;4941942;28;20048;-85
2023/05/17 08:37:55;;;;;;;15.05;3.53;;;;;;;;;;4940863;28;20036;-85
2023/05/17 08:40:22;;;;;;;16.10;3.13;;;;;;;;;;4956706;28;20050;-81
2023/05/17 08:42:49;;;;;;;20.75;4.13;;;;;;;;;;4965528;28;20039;-85
2023/05/17 08:45:17;;;;;;;13.32;3.65;;;;;;;;;;4941257;29;20053;-84
2023/05/17 08:47:45;;;;;;;19.38;3.15;;;;;;;;;;4945368;29;20040;-83
2023/05/17 08:50:12;;;;;;;14.23;3.45;;;;;;;;;;4941780;28;20116;-81
2023/05/17 08:52:39;;;;;;;16.25;3.45;;;;;;;;;;4933179;28;20059;-81
2023/05/17 08:55:07;;;;;;;17.40;3.75;;;;;;;;;;4932786;28;20052;-83
2023/05/17 08:57:37;;;;;;;18.75;3.90;;;;;;;;;;4949232;28;20048;-86
2023/05/17 09:00:13;;;;;;;16.10;3.50;;;;;;;;;;4935706;28;20503;-82
2023/05/17 09:02:41;;;;;;;14.77;3.28;;;;;;;;;;4933913;28;20107;-84
2023/05/17 09:05:09;;;;;;;16.10;3.78;;;;;;;;;;4933864;28;20310;-82
2023/05/17 09:07:36;;;;;;;14.75;3.17;;;;;;;;;;4918088;28;20501;-84
2023/05/17 09:10:04;;;;;;;22.63;4.03;;;;;;;;;;4918703;28;20074;-84
2023/05/17 09:12:34;;;;;;;19.58;3.47;;;;;;;;;;4918207;28;20055;-83
2023/05/17 09:15:17;;;;;;;13.77;3.38;;;;;;;;;;4918457;28;20048;-84
2023/05/17 09:17:50;;;;;;;12.85;3.50;;;;;;;;;;4952027;28;20039;-83
2023/05/17 09:20:23;;;;;;;14.68;4.15;;;;;;;;;;4949535;28;20047;-85
2023/05/17 09:22:50;;;;;;;11.23;3.08;;;;;;;;;;4937384;29;20044;-85
2023/05/17 09:25:22;;;;;;;15.30;3.35;;;;;;;;;;4938114;28;20476;-87
2023/05/17 09:27:52;;;;;;;14.35;3.47;;;;;;;;;;4937624;29;20051;-87
2023/05/17 09:30:25;;;;;;;15.20;3.40;;;;;;;;;;4952377;28;20047;-85
2023/05/17 09:32:52;;;;;;;16.58;3.65;;;;;;;;;;4936659;29;20050;-81
2023/05/17 09:35:25;;;;;;;15.45;3.30;;;;;;;;;;4946599;29;20052;-83
2023/05/17 09:37:52;;;;;;;21.52;3.67;;;;;;;;;;4935191;29;20098;-84
2023/05/17 09:40:24;;;;;;;12.95;2.95;;;;;;;;;;4933349;29;20036;-85
2023/05/17 09:42:50;;;;;;;14.75;3.45;;;;;;;;;;4941875;28;20059;-81
2023/05/17 09:45:22;;;;;;;16.38;2.92;;;;;;;;;;4956492;28;20131;-84
2023/05/17 09:47:49;;;;;;;14.02;2.80;;;;;;;;;;4957367;28;20054;-82
2023/05/17 09:50:17;;;;;;;16.92;3.28;;;;;;;;;;4959388;28;20051;-86
2023/05/17 09:52:45;;;;;;;17.02;3.55;;;;;;;;;;4954750;28;20047;-84
2023/05/17 09:55:11;;;;;;;13.98;2.92;;;;;;;;;;4954993;28;20069;-82
2023/05/17 09:57:39;;;;;;;17.88;3.13;;;;;;;;;;4953921;28;20130;-87
2023/05/17 10:00:10;;;;;;;16.85;2.58;;;;;;;;;;4949249;28;20603;-79
2023/05/17 10:02:39;;;;;;;11.80;2.67;;;;;;;;;;4950347;28;20123;-84
2023/05/17 10:05:10;;;;;;;16.70;2.50;;;;;;;;;;4955665;28;20127;-86
2023/05/17 10:07:37;;;;;;;11.32;2.55;;;;;;;;;;4955499;28;20054;-84
2023/05/17 10:10:05;;;;;;;14.20;2.55;;;;;;;;;;4970362;28;20527;-85
2023/05/17 10:12:34;;;;;;;13.32;2.85;;;;;;;;;;4956735;28;20078;-81
2023/05/17 10:15:02;;;;;;;12.18;2.50;;;;;;;;;;4949836;28;20051;-86
2023/05/17 10:17:29;;;;;;;14.68;2.53;;;;;;;;;;4948213;28;20047;-84
2023/05/17 10:19:56;;;;;;;10.82;2.15;;;;;;;;;;4934391;29;20415;-82
2023/05/17 10:22:23;;;;;;;7.60;2.10;;;;;;;;;;4956331;28;20040;-80
2023/05/17 10:24:50;;;;;;;7.45;2.10;;;;;;;;;;4961260;28;20066;-83
2023/05/17 10:27:17;;;;;;;11.38;2.45;;;;;;;;;;4948868;28;20065;-84
2023/05/17 10:29:45;;;;;;;10.30;2.35;;;;;;;;;;4943760;28;20071;-82
2023/05/17 10:32:17;;;;;;;10.80;2.30;;;;;;;;;;4951183;28;20051;-83
2023/05/17 10:34:44;;;;;;;11.63;2.10;;;;;;;;;;4961171;28;20129;-82
2023/05/17 10:37:23;;;;;;;12.85;2.72;;;;;;;;;;4936489;28;20072;-82
2023/05/17 10:39:51;;;;;;;12.70;2.72;;;;;;;;;;4956773;28;20055;-84
2023/05/17 10:42:18;;;;;;;13.27;2.53;;;;;;;;;;4970222;28;20059;-85
2023/05/17 10:44:44;;;;;;;11.60;2.60;;;;;;;;;;4956784;28;20571;-86
2023/05/17 10:47:13;;;;;;;21.60;3.05;;;;;;;;;;4956668;28;20048;-83
2023/05/17 10:49:40;;;;;;;11.55;3.38;;;;;;;;;;4957898;28;20050;-84
2023/05/17 10:52:17;;;;;;;18.40;3.10;;;;;;;;;;4958328;28;20110;-84
2023/05/17 10:54:46;;;;;;;11.93;2.80;;;;;;;;;;4959179;28;20138;-82
2023/05/17 10:57:20;;;;;;;12.32;2.83;;;;;;;;;;4960668;28;20464;-81
2023/05/17 11:00:00;;;;;;;15.43;2.70;;;;;;;;;;4960021;28;20051;-81
2023/05/17 11:02:27;;;;;;;10.93;3.05;;;;;;;;;;4944206;28;20115;-84
2023/05/17 11:04:59;;;;;;;11.70;2.30;;;;;;;;;;4942291;28;20071;-83
2023/05/17 11:07:28;;;;;;;14.10;2.97;;;;;;;;;;4940991;28;20058;-82
2023/05/17 11:10:05;;;;;;;12.65;2.03;;;;;;;;;;4936285;28;20054;-84
2023/05/17 11:12:41;;;;;;;7.57;2.20;;;;;;;;;;4959861;28;20520;-85
2023/05/17 11:15:09;;;;;;;10.35;2.65;;;;;;;;;;4948076;28;20051;-80
2023/05/17 11:17:42;;;;;;;14.40;2.85;;;;;;;;;;4953885;28;20047;-78
2023/05/17 11:20:28;;;;;;;12.77;2.83;;;;;;;;;;4947261;28;20432;-82
2023/05/17 11:22:55;;;;;;;15.43;2.72;;;;;;;;;;4938000;28;20055;-84
2023/05/17 11:25:21;;;;;;;18.23;2.75;;;;;;;;;;4938400;28;20043;-84
2023/05/17 11:27:56;;;;;;;11.73;2.50;;;;;;;;;;4936806;28;20126;-84
2023/05/17 11:30:30;;;;;;;8.95;2.10;;;;;;;;;;4935210;28;20055;-86
2023/05/17 11:33:01;;;;;;;12.10;2.13;;;;;;;;;;4935457;28;20052;-85
2023/05/17 11:35:37;;;;;;;13.00;2.38;;;;;;;;;;4936811;29;20051;-85
2023/05/17 11:38:16;;;;;;;10.85;2.22;;;;;;;;;;4937573;28;20052;-86
2023/05/17 11:40:47;;;;;;;14.18;2.58;;;;;;;;;;4936462;28;20078;-86
2023/05/17 11:43:14;;;;;;;14.10;3.60;;;;;;;;;;4953094;28;20098;-85
2023/05/17 11:45:42;;;;;;;11.15;2.38;;;;;;;;;;4938351;28;20052;-87
2023/05/17 11:48:09;;;;;;;15.95;2.80;;;;;;;;;;4938685;28;20429;-83
2023/05/17 11:50:36;;;;;;;10.55;2.78;;;;;;;;;;4938464;29;20114;-83
2023/05/17 11:53:07;;;;;;;13.07;2.80;;;;;;;;;;4945352;29;20051;-86
2023/05/17 11:55:36;;;;;;;9.02;2.40;;;;;;;;;;4939124;29;20061;-86
2023/05/17 11:58:03;;;;;;;11.60;2.40;;;;;;;;;;4947650;28;20126;-85
2023/05/17 12:00:30;;;;;;;21.63;3.08;;;;;;;;;;4933788;28;20112;-84
2023/05/17 12:02:56;;;;;;;9.77;2.50;;;;;;;;;;4944588;28;20051;-83
2023/05/17 12:05:25;;;;;;;12.90;2.70;;;;;;;;;;4942861;28;20047;-85
2023/05/17 12:07:51;;;;;;;15.48;2.85;;;;;;;;;;4921661;28;20056;-83
2023/05/17 12:10:18;;;;;;;9.65;3.22;;;;;;;;;;4916962;28;20099;-83
2023/05/17 12:12:45;;;;;;;9.10;2.33;;;;;;;;;;4948602;28;20067;-83
2023/05/17 12:15:16;;;;;;;11.82;2.63;;;;;;;;;;4934324;28;20036;-83
2023/05/17 12:17:44;;;;;;;11.60;2.42;;;;;;;;;;4919025;28;20047;-82
2023/05/17 12:20:11;;;;;;;11.80;2.58;;;;;;;;;;4924006;29;20043;-83
2023/05/17 12:22:50;;;;;;;14.63;2.50;;;;;;;;;;4938066;28;20052;-81
2023/05/17 12:25:22;;;;;;;11.02;2.65;;;;;;;;;;4936682;28;20443;-85
2023/05/17 12:27:53;;;;;;;12.85;2.50;;;;;;;;;;4939811;28;20046;-85
2023/05/17 12:30:20;;;;;;;12.23;2.22;;;;;;;;;;4940873;28;20054;-87
2023/05/17 12:32:47;;;;;;;10.85;2.20;;;;;;;;;;4936480;28;20154;-84
2023/05/17 12:35:14;;;;;;;15.23;2.42;;;;;;;;;;4955069;28;20063;-84
2023/05/17 12:37:41;;;;;;;9.30;2.83;;;;;;;;;;4964723;28;20452;-86
2023/05/17 12:40:08;;;;;;;11.73;2.65;;;;;;;;;;4951043;28;20051;-78
2023/05/17 12:42:34;;;;;;;11.82;2.35;;;;;;;;;;4969706;28;20062;-84
2023/05/17 12:45:01;;;;;;;17.48;2.42;;;;;;;;;;4952686;28;20073;-84
2023/05/17 12:47:31;;;;;;;14.13;2.03;;;;;;;;;;4958292;28;20046;-82
2023/05/17 12:49:59;;;;;;;15.23;2.35;;;;;;;;;;4952967;28;20114;-79
2023/05/17 12:52:31;;;;;;;13.52;2.42;;;;;;;;;;4988359;28;20058;-79
2023/05/17 12:54:58;;;;;;;10.80;2.47;;;;;;;;;;4942480;28;20070;-83
2023/05/17 12:57:25;;;;;;;11.32;2.05;;;;;;;;;;4954600;28;20043;-84
2023/05/17 12:59:51;;;;;;;16.17;2.75;;;;;;;;;;4953175;28;20047;-85
2023/05/17 13:02:22;;;;;;;19.17;2.75;;;;;;;;;;4933225;28;20048;-82
2023/05/17 13:04:49;;;;;;;13.10;2.80;;;;;;;;;;4935233;28;20438;-84
2023/05/17 13:07:25;;;;;;;11.48;2.30;;;;;;;;;;4952430;28;20035;-86
2023/05/17 13:09:51;;;;;;;14.95;3.13;;;;;;;;;;4948504;28;20066;-81
2023/05/17 13:12:19;;;;;;;12.88;2.10;;;;;;;;;;4952488;28;20126;-84
2023/05/17 13:14:47;;;;;;;7.10;2.13;;;;;;;;;;4953244;28;20051;-85
2023/05/17 13:17:14;;;;;;;11.57;2.10;;;;;;;;;;4950069;28;20106;-81
2023/05/17 13:19:41;;;;;;;11.60;1.95;;;;;;;;;;4949837;28;20138;-85
2023/05/17 13:22:08;;;;;;;15.98;2.40;;;;;;;;;;4932177;28;20107;-85
2023/05/17 13:24:35;;;;;;;14.65;2.88;;;;;;;;;;4932262;28;20126;-83
2023/05/17 13:27:03;;;;;;;8.98;2.13;;;;;;;;;;4932787;28;20059;-81
2023/05/17 13:29:29;;;;;;;12.77;2.30;;;;;;;;;;4933790;28;20048;-82
2023/05/17 13:32:06;;;;;;;12.63;2.30;;;;;;;;;;4932863;28;20047;-85
2023/05/17 13:34:33;;;;;;;10.70;2.35;;;;;;;;;;4945502;28;20402;-82
2023/05/17 13:36:59;;;;;;;10.65;2.25;;;;;;;;;;4930941;28;20528;-82
2023/05/17 13:39:26;;;;;;;8.02;2.30;;;;;;;;;;4935130;28;20070;-86
2023/05/17 13:41:53;;;;;;;14.18;2.50;;;;;;;;;;4941398;28;20051;-83
2023/05/17 13:44:22;;;;;;;7.03;2.40;;;;;;;;;;4936412;28;20056;-79
2023/05/17 13:46:49;;;;;;;9.27;2.33;;;;;;;;;;4939684;28;20051;-83
2023/05/17 13:49:17;;;;;;;9.70;2.40;;;;;;;;;;4941034;29;20358;-82
2023/05/17 13:51:43;;;;;;;8.50;2.13;;;;;;;;;;4939229;28;20071;-85
2023/05/17 13:54:22;;;;;;;9.38;2.20;;;;;;;;;;4953025;28;20054;-83
2023/05/17 13:56:49;;;;;;;10.25;2.00;;;;;;;;;;4938947;29;20126;-81
2023/05/17 13:59:15;;;;;;;12.00;2.58;;;;;;;;;;4940182;28;20048;-83
2023/05/17 14:01:42;;;;;;;8.48;1.83;;;;;;;;;;4938212;28;20106;-85
2023/05/17 14:04:09;;;;;;;12.68;2.22;;;;;;;;;;4925577;29;20042;-82
2023/05/17 14:06:40;;;;;;;10.18;2.20;;;;;;;;;;4955312;28;20067;-79
2023/05/17 14:09:07;;;;;;;11.93;2.30;;;;;;;;;;4986007;28;20039;-84
2023/05/17 14:11:33;;;;;;;8.50;2.20;;;;;;;;;;4987188;28;20039;-81
2023/05/17 14:14:00;;;;;;;9.68;2.35;;;;;;;;;;4979680;28;20122;-79
2023/05/17 14:16:27;;;;;;;9.02;2.50;;;;;;;;;;4969398;28;20054;-79
2023/05/17 14:18:54;;;;;;;8.38;2.25;;;;;;;;;;4961732;28;20055;-85
2023/05/17 14:21:21;;;;;;;9.07;2.05;;;;;;;;;;4951352;28;20126;-85
2023/05/17 14:23:50;;;;;;;9.93;2.50;;;;;;;;;;4955507;28;20122;-84
2023/05/17 14:26:17;;;;;;;9.18;1.95;;;;;;;;;;4954612;28;20055;-82
2023/05/17 14:28:44;;;;;;;14.52;2.25;;;;;;;;;;4955647;28;20664;-84
2023/05/17 14:31:10;;;;;;;9.25;2.20;;;;;;;;;;4952973;28;20138;-83
2023/05/17 14:33:37;;;;;;;11.73;2.15;;;;;;;;;;4953072;28;20055;-81
2023/05/17 14:36:04;;;;;;;13.82;1.80;;;;;;;;;;4974095;28;20107;-80
2023/05/17 14:38:31;;;;;;;15.02;2.22;;;;;;;;;;4970105;28;20077;-80
2023/05/17 14:40:59;;;;;;;13.25;2.00;;;;;;;;;;4959415;28;20055;-84